Latest Weather Observations for Warruwi

IDD60801

Issued at 8:31 am CST Saturday 1 August 2015 (issued every 30 minutes, with the page automatically refreshed every 10 minutes)

About weather observations | Map of weather stations | Latest weather observations for NT | Other Formats
Station Details ID: 014401 Name: WARRUWI AIRPORT Lat: -11.65 Lon: 133.38 Height: 19.2 m
Data from the previous 72 hours. | See also: Recent months at Warruwi
Date/Time
CST
Temp
°C
App
Temp
°C
Dew
Point
Rel
Hum
%
Delta-T
°C
Wind Press
QNH
hPa
Press
MSL
hPa
Rain
since 9 am
mm
Dir
 
Spd
km/h
Gust
km/h
Spd
kts
Gust
kts
01/08:30am 23.3 24.4 19.7 80 2.3 SE 13 20 7 11 1016.0 1015.9 0.0
01/08:00am 22.8 24.0 19.8 83 1.9 SE 13 19 7 10 1015.7 1015.6 0.0
01/07:30am 21.9 23.6 19.3 85 1.7 SSE 9 13 5 7 1015.4 1015.3 0.0
01/07:00am 21.8 23.5 19.4 86 1.5 SE 9 13 5 7 1015.1 1015.0 0.0
01/06:30am 22.1 23.5 19.6 86 1.6 SE 11 17 6 9 1014.8 1014.7 0.0
01/06:00am 22.4 23.6 19.9 86 1.6 ESE 13 19 7 10 1014.6 1014.5 0.0
01/05:30am 22.5 24.0 19.7 84 1.8 ESE 11 19 6 10 1014.5 1014.4 0.0
01/05:00am 22.6 23.5 19.2 81 2.2 ESE 13 20 7 11 1014.2 1014.1 0.0
01/04:30am 22.8 23.7 19.2 80 2.3 ESE 13 19 7 10 1014.3 1014.2 0.0
01/04:00am 23.0 23.4 19.0 78 2.5 ESE 15 22 8 12 1014.3 1014.2 0.0
01/03:30am 23.3 23.8 19.2 78 2.6 SE 15 24 8 13 1014.4 1014.3 0.0
01/03:00am 23.5 23.5 19.0 76 2.9 SE 17 24 9 13 1014.5 1014.4 0.0
01/02:30am 23.9 23.7 19.4 76 2.9 SE 19 28 10 15 1014.5 1014.4 0.0
01/02:00am 24.3 24.0 19.6 75 3.0 ESE 20 30 11 16 1014.6 1014.5 0.0
01/01:30am 24.7 23.8 20.6 78 2.7 E 26 37 14 20 1014.7 1014.6 0.0
01/01:00am 24.7 24.9 21.4 82 2.2 E 22 30 12 16 1015.0 1014.9 0.0
01/12:30am 24.8 25.4 21.1 80 2.4 E 19 32 10 17 1015.2 1015.1 0.0
01/12:00am 25.0 26.1 21.3 80 2.4 E 17 30 9 16 1015.1 1015.0 0.0
 
Date/Time
CST
Temp
°C
App
Temp
°C
Dew
Point
Rel
Hum
%
Delta-T
°C
Wind Press
QNH
hPa
Press
MSL
hPa
Rain
since 9 am
mm
Dir
 
Spd
km/h
Gust
km/h
Spd
kts
Gust
kts
31/11:30pm 24.9 26.0 21.2 80 2.4 E 17 26 9 14 1014.9 1014.8 0.0
31/11:00pm 24.9 26.6 21.6 82 2.2 E 15 22 8 12 1014.8 1014.7 0.0
31/10:30pm 25.1 26.5 21.8 82 2.2 E 17 26 9 14 1014.9 1014.8 0.0
31/10:00pm 24.9 26.9 21.6 82 2.2 E 13 24 7 13 1014.6 1014.5 0.0
31/09:30pm 25.0 27.0 21.5 81 2.3 E 13 20 7 11 1014.4 1014.3 0.0
31/09:00pm 24.9 27.4 21.8 83 2.1 E 11 19 6 10 1014.0 1013.9 0.0
31/08:30pm 24.9 27.3 21.6 82 2.2 ENE 11 17 6 9 1013.6 1013.5 0.0
31/08:00pm 24.9 27.2 21.4 81 2.3 E 11 20 6 11 1013.2 1013.1 0.0
31/07:30pm 24.9 27.5 21.2 80 2.4 E 9 15 5 8 1012.9 1012.8 0.0
31/07:00pm 25.0 27.1 20.9 78 2.7 ENE 11 19 6 10 1012.7 1012.6 0.0
31/06:30pm 25.3 27.0 21.0 77 2.8 E 13 22 7 12 1012.6 1012.5 0.0
31/06:00pm 25.7 27.3 20.7 74 3.3 E 13 20 7 11 1012.5 1012.4 0.0
31/05:30pm 26.1 26.6 20.0 69 4.0 E 17 28 9 15 1012.2 1012.1 0.0
31/05:00pm 26.9 27.5 20.3 67 4.3 ENE 17 26 9 14 1011.9 1011.8 0.0
31/04:30pm 27.2 28.5 20.8 68 4.2 E 15 22 8 12 1012.0 1011.9 0.0
31/04:00pm 27.2 27.8 20.3 66 4.5 E 17 28 9 15 1012.1 1012.0 0.0
31/03:30pm 27.6 28.0 19.9 63 5.0 E 17 28 9 15 1012.3 1012.2 0.0
31/03:00pm 27.3 28.0 20.4 66 4.5 ENE 17 26 9 14 1012.7 1012.6 0.0
31/02:30pm 27.3 27.7 20.9 68 4.2 E 20 33 11 18 1013.1 1013.0 0.0
31/02:00pm 27.1 27.0 20.7 68 4.2 E 22 32 12 17 1013.7 1013.6 0.0
31/01:30pm 27.4 27.6 20.5 66 4.5 E 20 32 11 17 1014.2 1014.1 0.0
31/01:00pm 26.8 27.2 20.9 70 3.9 E 20 32 11 17 1014.6 1014.5 0.0
31/12:30pm 27.2 27.1 20.8 68 4.2 E 22 32 12 17 1015.2 1015.1 0.0
31/12:00pm 27.4 27.6 20.5 66 4.5 E 20 32 11 17 1015.6 1015.5 0.0
31/11:30am 27.2 27.3 20.3 66 4.5 E 20 30 11 16 1015.9 1015.8 0.0
31/11:00am 26.8 26.4 20.2 67 4.3 E 22 32 12 17 1016.1 1016.0 0.0
31/10:30am 26.9 27.0 20.3 67 4.3 E 20 30 11 16 1016.4 1016.3 0.0
31/10:00am 25.8 26.1 20.4 72 3.5 E 19 28 10 15 1016.5 1016.4 0.0
31/09:30am 25.3 24.8 19.9 72 3.5 E 22 30 12 16 1016.6 1016.5 0.0
31/09:00am 24.9 25.5 20.2 75 3.1 ESE 17 26 9 14 1016.3 1016.2 0.0
31/08:30am 24.3 24.9 20.2 78 2.7 ESE 17 24 9 13 1016.3 1016.2 0.0
31/08:00am 23.7 24.6 20.0 80 2.4 ESE 15 22 8 12 1016.2 1016.1 0.0
31/07:30am 22.9 23.7 19.9 83 1.9 ESE 15 22 8 12 1016.0 1015.9 0.0
31/07:00am 22.5 22.5 19.7 84 1.8 ESE 19 26 10 14 1015.9 1015.8 0.0
31/06:30am 22.5 23.2 19.7 84 1.8 ESE 15 26 8 14 1015.7 1015.6 0.0
31/06:00am 22.7 22.7 19.7 83 1.9 ESE 19 26 10 14 1015.4 1015.3 0.0
31/05:30am 22.7 23.0 19.5 82 2.0 ESE 17 24 9 13 1015.5 1015.4 0.0
31/05:00am 22.8 23.5 19.6 82 2.0 ESE 15 24 8 13 1015.5 1015.4 0.0
31/04:30am 22.9 23.1 19.3 80 2.3 ESE 17 26 9 14 1015.7 1015.6 0.0
31/04:00am 23.0 23.1 19.2 79 2.4 ESE 17 24 9 13 1015.8 1015.7 0.0
31/03:30am 23.1 22.7 18.8 77 2.7 ESE 19 30 10 16 1015.9 1015.8 0.0
31/03:00am 23.3 22.8 18.6 75 3.0 SE 19 26 10 14 1015.8 1015.7 0.0
31/02:30am 23.5 22.7 18.4 73 3.2 SE 20 28 11 15 1015.9 1015.8 0.0
31/02:00am 23.8 22.6 18.4 72 3.4 SE 22 32 12 17 1016.1 1016.0 0.0
31/01:30am 24.2 23.4 18.4 70 3.7 ESE 20 32 11 17 1016.3 1016.2 0.0
31/01:00am 24.4 23.6 18.1 68 4.0 ESE 19 30 10 16 1016.5 1016.4 0.0
31/12:30am 24.4 24.1 18.3 69 3.8 ESE 17 26 9 14 1016.7 1016.6 0.0
31/12:00am 25.0 24.0 18.0 65 4.4 ESE 20 30 11 16 1016.6 1016.5 0.0
 
Date/Time
CST
Temp
°C
App
Temp
°C
Dew
Point
Rel
Hum
%
Delta-T
°C
Wind Press
QNH
hPa
Press
MSL
hPa
Rain
since 9 am
mm
Dir
 
Spd
km/h
Gust
km/h
Spd
kts
Gust
kts
30/11:30pm 24.5 26.3 21.8 85 1.8 ESE 15 22 8 12 1016.5 1016.4 0.0
30/11:00pm 24.8 26.9 22.5 87 1.5 ESE 15 20 8 11 1016.4 1016.3 0.0
30/10:30pm 25.1 26.7 22.2 84 1.9 E 17 24 9 13 1016.4 1016.3 0.0
30/10:00pm 25.1 27.0 22.0 83 2.1 E 15 20 8 11 1016.2 1016.1 0.0
30/09:30pm 25.1 27.4 22.0 83 2.1 E 13 19 7 10 1016.0 1015.9 0.0
30/09:00pm 25.0 27.6 21.9 83 2.1 E 11 19 6 10 1015.6 1015.5 0.0
30/08:30pm 25.0 28.1 22.1 84 1.9 E 9 15 5 8 1015.5 1015.4 0.0
30/08:00pm 25.0 27.5 21.7 82 2.2 E 11 15 6 8 1015.2 1015.1 0.0
30/07:30pm 25.0 27.9 21.7 82 2.2 E 9 15 5 8 1014.8 1014.7 0.0
30/07:00pm 25.1 27.8 21.4 80 2.4 E 9 13 5 7 1014.4 1014.3 0.0
30/06:30pm 25.4 27.7 20.6 75 3.1 E 9 13 5 7 1014.1 1014.0 0.0
30/06:00pm 26.1 27.9 20.4 71 3.7 ENE 11 17 6 9 1013.9 1013.8 0.0
30/05:30pm 26.8 28.4 19.9 66 4.5 ENE 11 19 6 10 1013.6 1013.5 0.0
30/05:00pm 27.3 27.7 19.1 61 5.3 ENE 15 22 8 12 1013.3 1013.2 0.0
30/04:30pm 27.8 28.5 18.8 58 5.8 ENE 13 24 7 13 1013.1 1013.0 0.0
30/04:00pm 28.2 28.2 18.9 57 6.0 ENE 17 28 9 15 1013.1 1013.0 0.0
30/03:30pm 27.9 28.0 19.1 58 5.7 ENE 17 28 9 15 1013.3 1013.2 0.0
30/03:00pm 28.0 28.4 19.8 61 5.3 ENE 17 28 9 15 1013.6 1013.5 0.0
30/02:30pm 27.8 27.8 19.8 61 5.2 E 19 28 10 15 1014.0 1013.9 0.0
30/02:00pm 27.7 27.6 20.0 63 5.0 ENE 20 32 11 17 1014.6 1014.5 0.0
30/01:30pm 28.2 28.0 20.5 63 5.1 E 22 32 12 17 1015.0 1014.9 0.0
30/01:00pm 27.8 27.9 20.4 64 4.9 E 20 32 11 17 1015.3 1015.2 0.0
30/12:30pm 27.5 27.2 20.3 65 4.7 E 22 32 12 17 1015.9 1015.8 0.0
30/12:00pm 27.0 27.2 20.6 68 4.2 E 20 30 11 16 1016.5 1016.4 0.0
30/11:30am 26.3 26.6 20.4 70 3.9 E 19 26 10 14 1017.1 1017.0 0.0
30/11:00am 26.5 26.7 20.1 68 4.2 E 19 24 10 13 1017.4 1017.3 0.0
30/10:30am 25.9 25.2 19.5 68 4.1 ESE 22 30 12 16 1017.6 1017.5 0.0
30/10:00am 25.2 24.4 19.3 70 3.8 ESE 22 32 12 17 1017.6 1017.5 0.0
30/09:30am 24.7 23.4 19.1 71 3.6 E 24 32 13 17 1017.7 1017.6 0.0
30/09:00am 24.5 23.6 19.1 72 3.4 ESE 22 33 12 18 1017.7 1017.6 0.0
30/08:30am 24.1 23.4 19.4 75 3.0 ESE 22 28 12 15 1017.1 1017.0 0.0
30/08:00am 23.5 22.9 18.8 75 3.0 ESE 20 28 11 15 1016.7 1016.6 0.0
30/07:30am 22.9 23.3 18.9 78 2.5 ESE 15 22 8 12 1016.5 1016.4 0.0
30/07:00am 22.6 22.9 18.8 79 2.4 SE 15 22 8 12 1016.3 1016.2 0.0
30/06:30am 22.6 22.5 18.8 79 2.4 SE 17 22 9 12 1016.0 1015.9 0.0
30/06:00am 22.4 22.3 18.8 80 2.3 SE 17 26 9 14 1015.8 1015.7 0.0
30/05:30am 22.4 23.1 18.8 80 2.3 SE 13 20 7 11 1015.7 1015.6 0.0
30/05:00am 22.6 22.5 18.8 79 2.4 SE 17 22 9 12 1015.8 1015.7 0.0
30/04:30am 22.8 22.4 18.8 78 2.5 SE 19 28 10 15 1015.8 1015.7 0.0
30/04:00am 23.1 22.5 18.8 77 2.7 SE 20 28 11 15 1016.1 1016.0 0.0
30/03:30am 23.2 22.5 18.7 76 2.8 SE 20 32 11 17 1016.4 1016.3 0.0
30/03:00am 23.5 23.0 18.6 74 3.1 ESE 19 28 10 15 1016.7 1016.6 0.0
30/02:30am 23.8 23.8 18.9 74 3.1 ESE 17 28 9 15 1016.9 1016.8 0.0
30/02:00am 24.0 23.2 18.4 71 3.5 ESE 20 30 11 16 1017.1 1017.0 0.0
30/01:30am 24.4 23.2 18.3 69 3.8 ESE 22 33 12 18 1017.3 1017.2 0.0
30/01:00am 24.6 23.8 18.1 67 4.1 ESE 19 32 10 17 1017.4 1017.3 0.0
30/12:30am 24.9 24.1 18.1 66 4.3 ESE 19 26 10 14 1017.3 1017.2 0.0
30/12:00am 25.0 24.2 18.0 65 4.4 ESE 19 28 10 15 1017.3 1017.2 0.0
 
Date/Time
CST
Temp
°C
App
Temp
°C
Dew
Point
Rel
Hum
%
Delta-T
°C
Wind Press
QNH
hPa
Press
MSL
hPa
Rain
since 9 am
mm
Dir
 
Spd
km/h
Gust
km/h
Spd
kts
Gust
kts
29/11:30pm 25.2 25.3 18.4 66 4.3 ESE 15 22 8 12 1017.5 1017.4 0.0
29/11:00pm 25.6 24.8 18.0 63 4.8 ESE 19 26 10 14 1017.3 1017.2 0.0
29/10:30pm 25.3 26.2 20.1 73 3.4 ESE 15 22 8 12 1017.1 1017.0 0.0
29/10:00pm 25.1 27.3 21.8 82 2.2 E 13 19 7 10 1017.1 1017.0 0.0
29/09:30pm 25.2 27.4 21.9 82 2.2 E 13 20 7 11 1017.0 1016.9 0.0
29/09:00pm 25.4 27.5 21.7 80 2.5 E 13 20 7 11 1016.7 1016.6 0.0
29/08:30pm 25.6 26.7 21.3 77 2.8 E 17 22 9 12 1016.4 1016.3 0.0
29/08:00pm 25.6 27.4 21.1 76 3.0 E 13 20 7 11 1015.9 1015.8 0.0
29/07:30pm 25.7 27.0 20.9 75 3.2 E 15 19 8 10 1015.5 1015.4 0.0
29/07:00pm 25.8 27.5 21.0 75 3.2 ESE 13 17 7 9 1015.1 1015.0 0.0
29/06:30pm 25.9 27.4 20.5 72 3.5 ESE 13 17 7 9 1014.8 1014.7 0.0
29/06:00pm 26.3 27.9 19.9 68 4.2 E 11 17 6 9 1014.6 1014.5 0.0
29/05:30pm 26.8 27.9 19.7 65 4.6 E 13 22 7 12 1014.2 1014.1 0.0
29/05:00pm 27.1 27.6 19.2 62 5.1 E 15 22 8 12 1013.9 1013.8 0.0
29/04:30pm 28.0 28.4 18.1 55 6.3 ENE 13 22 7 12 1014.0 1013.9 0.0
29/04:00pm 28.0 27.5 17.8 54 6.5 ENE 17 28 9 15 1013.9 1013.8 0.0
29/03:30pm 28.4 27.8 17.6 52 6.8 E 17 26 9 14 1014.0 1013.9 0.0
29/03:00pm 28.8 28.1 18.3 53 6.7 E 19 28 10 15 1014.2 1014.1 0.0
29/02:30pm 28.7 28.7 18.2 53 6.7 E 15 22 8 12 1014.4 1014.3 0.0
29/02:00pm 29.1 29.1 18.2 51 7.0 E 15 26 8 14 1014.7 1014.6 0.0
29/01:30pm 28.8 27.5 17.3 49 7.2 E 20 32 11 17 1015.2 1015.1 0.0
29/01:00pm 29.3 27.3 16.5 46 8.0 E 22 35 12 19 1015.7 1015.6 0.0
29/12:30pm 29.0 26.8 16.9 48 7.6 E 24 32 13 17 1016.2 1016.1 0.0
29/12:00pm 28.6 27.3 17.2 50 7.2 E 20 26 11 14 1016.7 1016.6 0.0
29/11:30am 28.0 26.3 16.3 49 7.2 ESE 20 28 11 15 1017.1 1017.0 0.0
29/11:00am 28.5 25.5 14.7 43 8.4 ESE 24 39 13 21 1017.5 1017.4 0.0
29/10:30am 27.7 24.5 14.3 43 8.0 ESE 24 35 13 19 1017.9 1017.8 0.0
29/10:00am 26.6 24.1 14.0 46 7.5 ESE 20 32 11 17 1018.1 1018.0 0.0
29/09:30am 25.9 23.8 16.2 55 5.9 ESE 22 32 12 17 1018.1 1018.0 0.0
29/09:00am 24.6 22.3 15.8 58 5.3 ESE 22 30 12 16 1018.0 1017.9 0.0

Other Formats:

Comma delimited format used in spreadsheet applications
http://www.bom.gov.au/fwo/IDD60801/IDD60801.94139.axf

JavaScript Object Notation format (JSON) in row-major order
http://www.bom.gov.au/fwo/IDD60801/IDD60801.94139.json